createdAt,value
2019-01-02T00:00:40.956Z,71.10
2019-01-02T00:03:10.436Z,71.20
2019-01-02T00:05:40.530Z,71.10
2019-01-02T00:08:10.030Z,69.60
2019-01-02T00:10:40.100Z,69.20
2019-01-02T00:13:09.607Z,68.90
2019-01-02T00:15:39.092Z,69.10
2019-01-02T00:18:08.617Z,69.40
2019-01-02T00:20:38.145Z,69.90
2019-01-02T00:23:07.868Z,69.90
2019-01-02T00:25:37.443Z,69.40
2019-01-02T00:28:07.299Z,69.20
2019-01-02T00:30:36.784Z,69.20
2019-01-02T00:33:06.583Z,68.90
2019-01-02T00:35:36.035Z,70.10
2019-01-02T00:38:05.923Z,69.40
2019-01-02T00:40:35.416Z,71.30
2019-01-02T00:43:05.191Z,70.20
2019-01-02T00:45:34.680Z,69.70
2019-01-02T00:48:04.139Z,70.30
2019-01-02T00:50:34.274Z,68.90
2019-01-02T00:53:03.736Z,69.70
2019-01-02T00:55:33.422Z,70.00
2019-01-02T00:58:03.039Z,70.70
2019-01-02T01:00:33.361Z,69.70
2019-01-02T01:03:02.812Z,69.30
2019-01-02T01:05:32.313Z,69.50
2019-01-02T01:08:01.800Z,70.30
2019-01-02T01:10:31.587Z,69.50
2019-01-02T01:13:01.066Z,70.50
2019-01-02T01:15:30.559Z,69.80
2019-01-02T01:18:00.057Z,69.80
2019-01-02T01:20:29.613Z,70.70
2019-01-02T01:22:59.030Z,70.70
2019-01-02T01:25:28.829Z,71.00
2019-01-02T01:27:58.311Z,70.60
2019-01-02T01:30:27.816Z,69.80
2019-01-02T01:32:57.323Z,69.90
2019-01-02T01:35:26.779Z,69.50
2019-01-02T01:37:57.137Z,68.90
2019-01-02T01:40:26.619Z,69.40
2019-01-02T01:42:56.081Z,68.90
2019-01-02T01:45:26.307Z,68.90
2019-01-02T01:47:55.853Z,70.00
2019-01-02T01:50:25.551Z,69.20
2019-01-02T01:52:55.520Z,68.10
2019-01-02T01:55:25.043Z,68.30
2019-01-02T01:57:54.801Z,68.20
2019-01-02T02:00:24.248Z,68.20
2019-01-02T02:02:53.790Z,68.40
2019-01-02T02:05:23.540Z,67.30
2019-01-02T02:07:53.413Z,67.30
2019-01-02T02:10:22.858Z,68.70
2019-01-02T02:12:52.287Z,66.80
2019-01-02T02:15:21.786Z,66.90
2019-01-02T02:17:51.535Z,67.60
2019-01-02T02:20:21.043Z,67.50
2019-01-02T02:22:50.551Z,67.00
2019-01-02T02:25:21.414Z,67.80
2019-01-02T02:27:50.883Z,67.20
2019-01-02T02:30:20.911Z,67.00
2019-01-02T02:32:51.710Z,67.70
2019-01-02T02:35:21.756Z,68.00
2019-01-02T02:37:51.634Z,68.30
2019-01-02T02:40:21.128Z,66.10
2019-01-02T02:42:50.887Z,67.30
2019-01-02T02:45:20.695Z,67.00
2019-01-02T02:47:50.890Z,67.30
2019-01-02T02:50:20.680Z,67.70
2019-01-02T02:52:50.448Z,67.30
2019-01-02T02:55:22.774Z,67.40
2019-01-02T02:57:52.230Z,67.50
2019-01-02T03:00:21.679Z,67.80
2019-01-02T03:02:51.149Z,67.60
2019-01-02T03:05:20.907Z,67.50
2019-01-02T03:07:50.345Z,66.90
2019-01-02T03:10:20.182Z,66.80
2019-01-02T03:12:50.029Z,66.60
2019-01-02T03:15:19.840Z,66.00
2019-01-02T03:17:49.310Z,66.10
2019-01-02T03:20:18.760Z,66.40
2019-01-02T03:22:48.236Z,65.60
2019-01-02T03:25:17.988Z,66.10
2019-01-02T03:27:47.827Z,65.50
2019-01-02T03:30:19.236Z,65.90
2019-01-02T03:32:48.997Z,65.40
2019-01-02T03:35:18.828Z,65.90
2019-01-02T03:37:48.643Z,65.60
2019-01-02T03:40:18.050Z,65.90
2019-01-02T03:42:47.591Z,65.60
2019-01-02T03:45:18.827Z,65.20
2019-01-02T03:47:48.730Z,65.40
2019-01-02T03:50:19.408Z,65.50
2019-01-02T03:52:48.906Z,65.20
2019-01-02T03:55:18.330Z,65.80
2019-01-02T03:57:47.849Z,66.00
2019-01-02T04:00:19.490Z,66.30
2019-01-02T04:02:48.944Z,65.30
2019-01-02T04:05:21.006Z,66.00
2019-01-02T04:07:53.443Z,66.20
2019-01-02T04:10:23.107Z,65.70
2019-01-02T04:12:52.590Z,65.70
2019-01-02T04:15:22.081Z,64.80
2019-01-02T04:17:51.543Z,64.90
2019-01-02T04:20:21.011Z,65.10
2019-01-02T04:22:50.429Z,65.00
2019-01-02T04:25:20.193Z,65.60
2019-01-02T04:27:49.639Z,65.40
2019-01-02T04:30:19.011Z,64.80
2019-01-02T04:32:48.427Z,65.20
2019-01-02T04:35:17.921Z,65.50
2019-01-02T04:37:47.433Z,65.70
2019-01-02T04:40:16.822Z,65.80
2019-01-02T04:42:46.272Z,65.00
2019-01-02T04:45:16.003Z,65.70
2019-01-02T04:47:45.556Z,65.90
2019-01-02T04:50:15.511Z,66.60
2019-01-02T04:52:44.892Z,65.90
2019-01-02T04:55:14.260Z,65.70
2019-01-02T04:57:43.658Z,66.30
2019-01-02T05:00:17.611Z,66.10
2019-01-02T05:02:46.989Z,66.40
2019-01-02T05:05:16.379Z,66.20
2019-01-02T05:07:46.121Z,66.50
2019-01-02T05:10:16.081Z,66.70
2019-01-02T05:12:45.549Z,65.70
2019-01-02T05:15:15.355Z,66.10
2019-01-02T05:17:44.733Z,66.30
2019-01-02T05:20:15.855Z,66.60
2019-01-02T05:22:45.667Z,66.40
2019-01-02T05:25:15.062Z,65.40
2019-01-02T05:27:44.535Z,65.80
2019-01-02T05:30:18.665Z,66.20
2019-01-02T05:32:48.136Z,65.80
2019-01-02T05:35:17.693Z,66.60
2019-01-02T05:37:47.180Z,66.30
2019-01-02T05:40:21.684Z,67.00
2019-01-02T05:42:51.168Z,66.70
2019-01-02T05:45:20.636Z,67.00
2019-01-02T05:47:50.184Z,66.80
2019-01-02T05:50:22.023Z,66.80
2019-01-02T05:52:51.422Z,67.00
2019-01-02T05:55:21.239Z,66.80
2019-01-02T05:57:50.670Z,66.50
2019-01-02T06:00:20.145Z,67.10
2019-01-02T06:02:49.558Z,67.10
2019-01-02T06:05:19.044Z,67.10
2019-01-02T06:07:48.557Z,67.50
2019-01-02T06:10:18.463Z,67.40
2019-01-02T06:12:48.006Z,67.40
2019-01-02T06:15:18.018Z,67.50
2019-01-02T06:17:47.491Z,68.10
2019-01-02T06:20:18.355Z,68.20
2019-01-02T06:22:47.875Z,68.70
2019-01-02T06:25:17.347Z,68.50
2019-01-02T06:27:46.778Z,68.00
2019-01-02T06:30:16.274Z,68.50
2019-01-02T06:32:45.682Z,68.60
2019-01-02T06:35:15.223Z,68.50
2019-01-02T06:37:44.678Z,68.70
2019-01-02T06:40:14.695Z,68.90
2019-01-02T06:42:44.303Z,69.30
2019-01-02T06:45:15.910Z,69.40
2019-01-02T06:47:45.458Z,68.90
2019-01-02T06:50:18.206Z,68.90
2019-01-02T06:52:47.804Z,68.70
2019-01-02T06:55:17.799Z,69.20
2019-01-02T06:57:47.252Z,69.00
2019-01-02T07:00:25.996Z,68.90
2019-01-02T07:02:55.509Z,69.20
2019-01-02T07:05:24.944Z,68.70
2019-01-02T07:07:54.947Z,69.00
2019-01-02T07:10:24.480Z,68.90
2019-01-02T07:12:54.103Z,68.70
2019-01-02T07:15:23.702Z,68.50
2019-01-02T07:17:53.224Z,68.70
2019-01-02T07:20:22.704Z,69.10
2019-01-02T07:22:52.199Z,69.10
2019-01-02T07:25:21.772Z,68.90
2019-01-02T07:27:51.429Z,68.70
2019-01-02T07:30:23.079Z,68.80
2019-01-02T07:32:52.599Z,69.00
2019-01-02T07:35:54.115Z,69.30
2019-01-02T07:38:54.805Z,69.30
2019-01-02T07:42:10.049Z,69.40
2019-01-02T07:45:20.533Z,69.50
2019-01-02T07:48:27.232Z,69.60
2019-01-02T07:51:58.451Z,69.80
2019-01-02T07:55:03.108Z,69.50
2019-01-02T07:57:53.445Z,69.60
2019-01-02T08:01:02.331Z,69.80
2019-01-02T08:04:06.916Z,70.20
2019-01-02T08:07:31.160Z,70.20
2019-01-02T08:10:43.482Z,69.90
2019-01-02T08:13:55.284Z,70.80
2019-01-02T08:16:43.556Z,70.10
2019-01-02T08:19:42.564Z,69.80
2019-01-02T08:22:44.083Z,69.40
2019-01-02T08:25:34.110Z,71.00
2019-01-02T08:28:20.757Z,68.20
2019-01-02T08:31:32.757Z,69.70
2019-01-02T08:34:25.668Z,69.10
2019-01-02T08:37:34.750Z,69.40
2019-01-02T08:40:35.930Z,68.90
2019-01-02T08:43:30.760Z,69.10
2019-01-02T08:46:31.587Z,69.20
2019-01-02T08:49:51.327Z,70.00
2019-01-02T08:53:03.197Z,69.80
2019-01-02T08:56:20.224Z,69.20
2019-01-02T08:59:05.674Z,68.90
2019-01-02T09:02:14.317Z,68.90
2019-01-02T09:05:24.578Z,68.60
2019-01-02T09:08:44.199Z,68.10
2019-01-02T09:11:31.814Z,67.80
2019-01-02T09:14:58.226Z,68.00
2019-01-02T09:18:07.298Z,67.50
2019-01-02T09:21:09.675Z,66.90
2019-01-02T09:24:20.675Z,67.10
2019-01-02T09:27:20.364Z,67.20
2019-01-02T09:30:42.907Z,66.20
2019-01-02T09:34:08.698Z,66.30
2019-01-02T09:37:20.467Z,66.20
2019-01-02T09:40:48.635Z,66.70
2019-01-02T09:43:45.972Z,66.90
2019-01-02T09:46:55.097Z,67.10
2019-01-02T09:50:15.126Z,67.30
2019-01-02T09:53:38.425Z,67.50
2019-01-02T09:56:51.806Z,67.70
2019-01-02T10:00:00.101Z,69.60
2019-01-02T10:02:58.570Z,69.70
2019-01-02T10:06:23.787Z,71.20
2019-01-02T10:09:30.673Z,70.00
2019-01-02T10:12:43.925Z,69.40
2019-01-02T10:15:58.422Z,69.60
2019-01-02T10:19:12.210Z,68.50
2019-01-02T10:22:26.621Z,68.50
2019-01-02T10:25:54.984Z,67.90
2019-01-02T10:29:05.323Z,67.30
2019-01-02T10:31:58.861Z,67.10
2019-01-02T10:35:01.153Z,65.80
2019-01-02T10:37:57.340Z,66.30
2019-01-02T10:41:04.991Z,65.30
2019-01-02T10:44:14.988Z,65.00
2019-01-02T10:47:16.730Z,65.90
2019-01-02T10:50:07.415Z,66.50
2019-01-02T10:53:14.704Z,66.00
2019-01-02T10:56:28.238Z,66.60
2019-01-02T10:59:37.533Z,67.30
2019-01-02T11:02:40.385Z,66.60
2019-01-02T11:05:51.106Z,66.40
2019-01-02T11:08:48.122Z,66.30
2019-01-02T11:12:16.333Z,66.60
2019-01-02T11:15:35.308Z,70.40
2019-01-02T11:18:36.348Z,72.30
2019-01-02T11:21:41.315Z,72.70
2019-01-02T11:24:48.680Z,71.20
2019-01-02T11:28:05.463Z,70.80
2019-01-02T11:31:14.776Z,69.80
2019-01-02T11:34:21.931Z,70.60
2019-01-02T11:37:20.617Z,70.40
2019-01-02T11:40:20.980Z,70.60
2019-01-02T11:43:22.969Z,70.60
2019-01-02T11:45:52.335Z,68.60
2019-01-02T11:48:22.090Z,67.80
2019-01-02T11:50:51.585Z,67.90
2019-01-02T11:53:21.150Z,68.20
2019-01-02T11:55:50.601Z,66.40
2019-01-02T11:58:20.056Z,67.10
2019-01-02T12:00:49.545Z,66.40
2019-01-02T12:03:19.433Z,67.10
2019-01-02T12:05:49.208Z,61.80
2019-01-02T12:08:18.781Z,61.60
2019-01-02T12:10:48.302Z,60.20
2019-01-02T12:13:17.777Z,59.30
2019-01-02T12:15:47.301Z,58.50
2019-01-02T12:18:17.025Z,59.00
2019-01-02T12:20:46.745Z,58.20
2019-01-02T12:23:16.376Z,59.30
2019-01-02T12:25:46.244Z,59.40
2019-01-02T12:28:15.883Z,59.00
2019-01-02T12:30:45.420Z,59.10
2019-01-02T12:33:15.925Z,59.10
2019-01-02T12:35:45.580Z,58.60
2019-01-02T12:38:15.277Z,59.20
2019-01-02T12:40:45.580Z,59.30
2019-01-02T12:43:15.556Z,57.40
2019-01-02T12:45:48.480Z,57.50
2019-01-02T12:48:18.902Z,57.70
2019-01-02T12:50:51.933Z,57.80
2019-01-02T12:53:21.754Z,57.60
2019-01-02T12:55:51.428Z,56.30
2019-01-02T12:58:25.443Z,56.40
2019-01-02T13:01:19.176Z,57.20
2019-01-02T13:04:21.668Z,55.40
2019-01-02T13:07:48.638Z,55.40
2019-01-02T13:10:52.821Z,56.30
2019-01-02T13:13:55.801Z,57.60
2019-01-02T13:16:50.019Z,55.20
2019-01-02T13:20:06.353Z,55.50
2019-01-02T13:23:02.874Z,55.00
2019-01-02T13:25:45.700Z,53.60
2019-01-02T13:28:52.282Z,54.70
2019-01-02T13:32:22.043Z,55.50
2019-01-02T13:35:28.632Z,56.00
2019-01-02T13:38:36.914Z,54.50
2019-01-02T13:41:31.564Z,54.40
2019-01-02T13:44:34.373Z,54.20
2019-01-02T13:47:54.533Z,53.40
2019-01-02T13:50:46.390Z,52.20
2019-01-02T13:53:16.281Z,51.00
2019-01-02T13:55:45.696Z,50.40
2019-01-02T13:58:15.562Z,50.80
2019-01-02T14:00:45.132Z,50.30
2019-01-02T14:03:15.227Z,51.80
2019-01-02T14:05:47.819Z,51.90
2019-01-02T14:08:17.467Z,51.80
2019-01-02T14:10:48.145Z,52.20
2019-01-02T14:13:17.879Z,53.20
2019-01-02T14:15:47.458Z,52.30
2019-01-02T14:18:17.258Z,52.70
2019-01-02T14:20:47.940Z,52.50
2019-01-02T14:23:17.557Z,51.50
2019-01-02T14:25:47.083Z,52.10
2019-01-02T14:28:16.661Z,52.70
2019-01-02T14:30:46.223Z,53.60
2019-01-02T14:33:15.845Z,52.00
2019-01-02T14:35:45.381Z,51.90
2019-01-02T14:38:15.132Z,52.30
2019-01-02T14:40:45.315Z,52.00
2019-01-02T14:43:14.912Z,52.50
2019-01-02T14:45:44.476Z,53.40
2019-01-02T14:48:14.128Z,52.30
2019-01-02T14:50:43.724Z,51.40
2019-01-02T14:53:13.257Z,52.40
2019-01-02T14:55:43.020Z,53.00
2019-01-02T14:58:14.339Z,53.50
2019-01-02T15:00:43.864Z,53.80
2019-01-02T15:03:13.790Z,51.80
2019-01-02T15:05:43.956Z,50.50
2019-01-02T15:08:13.533Z,51.70
2019-01-02T15:10:43.380Z,50.50
2019-01-02T15:13:12.952Z,51.10
2019-01-02T15:15:42.743Z,50.70
2019-01-02T15:18:23.461Z,51.70
2019-01-02T15:21:12.961Z,50.80
2019-01-02T15:23:45.278Z,50.90
2019-01-02T15:26:15.863Z,50.90
2019-01-02T15:28:45.932Z,52.90
2019-01-02T15:31:34.969Z,51.70
2019-01-02T15:34:07.658Z,52.50
2019-01-02T15:36:37.142Z,53.20
2019-01-02T15:39:09.014Z,52.50
2019-01-02T15:41:38.902Z,53.40
2019-01-02T15:44:09.246Z,52.70
2019-01-02T15:46:39.243Z,52.40
2019-01-02T15:49:09.029Z,52.80
2019-01-02T15:51:41.811Z,52.40
2019-01-02T15:54:12.261Z,52.50
2019-01-02T15:56:42.059Z,52.00
2019-01-02T15:59:12.595Z,51.40
2019-01-02T16:01:43.080Z,52.20
2019-01-02T16:04:12.689Z,51.40
2019-01-02T16:06:42.362Z,52.70
2019-01-02T16:09:12.063Z,51.70
2019-01-02T16:11:44.443Z,52.00
2019-01-02T16:14:17.024Z,51.90
2019-01-02T16:16:46.205Z,50.70
2019-01-02T16:19:15.634Z,50.10
2019-01-02T16:21:45.035Z,49.70
2019-01-02T16:24:14.569Z,50.00
2019-01-02T16:26:44.143Z,49.20
2019-01-02T16:29:13.685Z,49.20
2019-01-02T16:31:43.106Z,49.60
2019-01-02T16:34:13.091Z,50.00
2019-01-02T16:36:43.192Z,50.50
2019-01-02T16:39:12.721Z,49.90
2019-01-02T16:41:42.267Z,49.70
2019-01-02T16:44:12.142Z,50.00
2019-01-02T16:46:42.117Z,50.60
2019-01-02T16:49:12.083Z,50.10
2019-01-02T16:51:41.600Z,50.10
2019-01-02T16:54:11.428Z,50.50
2019-01-02T16:56:41.004Z,50.00
2019-01-02T16:59:12.323Z,50.20
2019-01-02T17:01:42.430Z,50.60
2019-01-02T17:04:11.888Z,50.80
2019-01-02T17:06:41.406Z,51.00
2019-01-02T17:09:13.858Z,51.10
2019-01-02T17:11:43.591Z,50.90
2019-01-02T17:14:13.093Z,50.90
2019-01-02T17:16:42.985Z,52.70
2019-01-02T17:19:12.456Z,51.10
2019-01-02T17:21:42.260Z,52.20
2019-01-02T17:24:11.731Z,51.80
2019-01-02T17:26:41.188Z,52.20
2019-01-02T17:29:11.122Z,52.40
2019-01-02T17:31:40.742Z,51.30
2019-01-02T17:34:10.372Z,51.70
2019-01-02T17:36:39.957Z,53.30
2019-01-02T17:39:09.668Z,51.60
2019-01-02T17:41:47.042Z,51.60
2019-01-02T17:44:18.453Z,51.90
2019-01-02T17:46:49.669Z,53.30
2019-01-02T17:49:22.596Z,53.00
2019-01-02T17:51:53.538Z,52.00
2019-01-02T17:54:24.977Z,51.80
2019-01-02T17:57:01.723Z,52.70
2019-01-02T17:59:31.653Z,52.10
2019-01-02T18:02:03.290Z,53.00
2019-01-02T18:04:32.988Z,52.90
2019-01-02T18:07:03.160Z,52.30
2019-01-02T18:09:33.344Z,53.50
2019-01-02T18:12:03.104Z,52.20
2019-01-02T18:14:33.779Z,52.80
2019-01-02T18:17:04.036Z,52.30
2019-01-02T18:19:34.976Z,51.60
2019-01-02T18:22:05.036Z,51.70
2019-01-02T18:24:37.129Z,51.90
2019-01-02T18:27:06.607Z,52.50
2019-01-02T18:29:36.053Z,53.40
2019-01-02T18:32:05.644Z,53.20
2019-01-02T18:34:35.153Z,52.10
2019-01-02T18:37:04.684Z,52.50
2019-01-02T18:39:34.400Z,52.30
2019-01-02T18:42:03.827Z,52.90
2019-01-02T18:44:33.244Z,52.20
2019-01-02T18:47:03.023Z,52.30
2019-01-02T18:49:33.103Z,52.20
2019-01-02T18:52:03.372Z,52.80
2019-01-02T18:54:33.288Z,53.20
2019-01-02T18:57:02.822Z,53.20
2019-01-02T18:59:43.694Z,52.90
2019-01-02T19:02:08.217Z,52.60
2019-01-02T19:04:50.546Z,53.60
2019-01-02T19:07:21.266Z,54.90
2019-01-02T19:09:50.994Z,53.60
2019-01-02T19:12:20.749Z,54.40
2019-01-02T19:14:50.633Z,53.70
2019-01-02T19:17:20.463Z,53.60
2019-01-02T19:19:50.176Z,52.70
2019-01-02T19:22:20.365Z,52.60
2019-01-02T19:24:50.451Z,53.90
2019-01-02T19:27:20.716Z,52.70
2019-01-02T19:29:51.199Z,52.70
2019-01-02T19:32:20.955Z,53.10
2019-01-02T19:34:50.621Z,53.00
2019-01-02T19:37:20.309Z,53.80
2019-01-02T19:39:50.009Z,53.20
2019-01-02T19:42:19.853Z,54.40
2019-01-02T19:44:51.215Z,53.40
2019-01-02T19:47:20.777Z,52.50
2019-01-02T19:49:50.399Z,53.00
2019-01-02T19:52:19.952Z,54.30
2019-01-02T19:54:50.255Z,54.20
2019-01-02T19:57:19.781Z,53.90
2019-01-02T19:59:49.415Z,54.40
2019-01-02T20:02:20.048Z,53.70
2019-01-02T20:04:50.159Z,54.30
2019-01-02T20:07:19.835Z,54.60
2019-01-02T20:09:49.533Z,54.50
2019-01-02T20:12:20.964Z,54.00
2019-01-02T20:14:50.598Z,54.50
2019-01-02T20:17:20.525Z,53.20
2019-01-02T20:19:50.142Z,53.50
2019-01-02T20:22:20.105Z,54.10
2019-01-02T20:24:50.612Z,53.10
2019-01-02T20:27:20.131Z,54.00
2019-01-02T20:29:51.625Z,54.50
2019-01-02T20:32:22.909Z,54.20
2019-01-02T20:34:53.580Z,54.10
2019-01-02T20:37:24.119Z,53.20
2019-01-02T20:39:55.544Z,54.40
2019-01-02T20:42:25.275Z,55.60
2019-01-02T20:44:55.123Z,55.30
2019-01-02T20:47:25.312Z,55.30
2019-01-02T20:49:55.038Z,54.60
2019-01-02T20:52:24.518Z,53.90
2019-01-02T20:54:54.061Z,53.30
2019-01-02T20:57:23.611Z,54.00
2019-01-02T20:59:53.186Z,54.10
2019-01-02T21:02:22.757Z,54.10
2019-01-02T21:04:52.424Z,53.70
2019-01-02T21:07:21.905Z,54.70
2019-01-02T21:09:51.763Z,54.30
2019-01-02T21:12:21.453Z,54.90
2019-01-02T21:14:51.231Z,54.50
2019-01-02T21:17:20.779Z,55.70
2019-01-02T21:19:50.479Z,54.40
2019-01-02T21:22:19.925Z,54.50
2019-01-02T21:24:49.402Z,54.70
2019-01-02T21:27:18.864Z,54.80
2019-01-02T21:29:48.351Z,53.20
2019-01-02T21:32:26.751Z,54.10
2019-01-02T21:34:57.634Z,53.70
2019-01-02T21:37:27.433Z,54.70
2019-01-02T21:39:57.010Z,53.90
2019-01-02T21:42:26.961Z,54.60
2019-01-02T21:44:56.520Z,54.10
2019-01-02T21:47:25.975Z,55.00
2019-01-02T21:49:55.472Z,55.70
2019-01-02T21:52:24.960Z,55.60
2019-01-02T21:54:54.365Z,54.70
2019-01-02T21:57:23.820Z,55.20
2019-01-02T21:59:53.997Z,55.00
2019-01-02T22:02:23.455Z,56.00
2019-01-02T22:04:52.970Z,55.60
2019-01-02T22:07:22.402Z,56.40
2019-01-02T22:09:52.200Z,55.80
2019-01-02T22:12:21.651Z,55.40
2019-01-02T22:14:51.189Z,56.00
2019-01-02T22:17:20.675Z,56.60
2019-01-02T22:19:50.163Z,56.10
2019-01-02T22:22:19.575Z,56.40
2019-01-02T22:24:49.053Z,56.30
2019-01-02T22:27:18.432Z,56.00
2019-01-02T22:29:48.023Z,56.40
2019-01-02T22:32:17.465Z,56.60
2019-01-02T22:34:46.988Z,56.50
2019-01-02T22:37:16.493Z,56.60
2019-01-02T22:39:45.965Z,56.50
2019-01-02T22:42:15.432Z,56.90
2019-01-02T22:44:44.906Z,57.30
2019-01-02T22:47:14.379Z,57.50
2019-01-02T22:49:44.109Z,57.70
2019-01-02T22:52:13.607Z,57.50
2019-01-02T22:54:43.084Z,57.40
2019-01-02T22:57:12.613Z,57.20
2019-01-02T22:59:42.471Z,56.80
2019-01-02T23:02:39.975Z,57.50
2019-01-02T23:05:27.434Z,57.00
2019-01-02T23:08:24.635Z,58.10
2019-01-02T23:11:13.021Z,58.10
2019-01-02T23:14:04.458Z,58.10
2019-01-02T23:16:59.639Z,58.60
2019-01-02T23:19:44.661Z,58.90
2019-01-02T23:22:31.474Z,58.40
2019-01-02T23:25:34.753Z,58.50
2019-01-02T23:28:38.373Z,58.40
2019-01-02T23:31:33.031Z,58.80
2019-01-02T23:34:19.835Z,58.00
2019-01-02T23:37:06.911Z,58.90
2019-01-02T23:39:53.868Z,58.50
2019-01-02T23:42:41.340Z,58.80
2019-01-02T23:45:28.333Z,58.90
2019-01-02T23:48:15.305Z,58.90
2019-01-02T23:51:02.292Z,58.70
2019-01-02T23:53:50.617Z,58.50
2019-01-02T23:56:45.953Z,59.10
2019-01-02T23:59:43.427Z,59.00
